San Antonio, Texas
Current Conditions -  °F | °C
As of 10:58 PM on Friday 24 Oct 2014 (Local Time) from KSKF Reporting Station
Clear Clear  
Wind Chill: 21°   Ceiling: Unl
Heat Index: 21°   Visibility: 10mi
Dew Point: 15°   Wind: 5mph
Humidity: 68%   Direction: 120°ESE
Pressure: 30.13"   Gusts: NA
Location:  29.42°N, 98.49°W
Report Text: KSKF 250358Z AUTO 12004KT 10SM CLR 21/15 A3013 RMK AO2 SLP197 T02080146 $
Loading
Personal Weather Stations






























Interactive Weather Map
Tropical Storm Tracking
New forecast layout! Learn more

10-Day Weather Forecast

Advertisements
Track Severe Weather on mobile